Kezdőlap
METAR-TAF:

METAR-TAF

Repülőterek :

Christchurch, Új-Zéland

földrajzi szélesség: 43-29S, földrajzi hosszúság: 172-33E, magasság: 38 m

Jelenlegi meteorológiai megfigyelések

A jelentés 35 perccel ezelõtt készült, 07:30 UTC
Keleti szél 11 kt
Hőmérséklet 20°C
Páratartalom 83%
Légköri nyomás 1009 hPa
Látótávolság 10 km, vagy több

METAR: NZCH 230730Z AUTO 08011KT 9999 NCD 20/17 Q1009 NOSIG

Idő: 21:05 (08:05 UTC)

Előrejelzés

A jelentés 3 órával és 4 perccel ezelõtt készült, 05:01 UTC
Az előrejelzés 23-én 06 óra UTC és 24-én 06 óra UTC között érvényes
Kelet-északkeleti szél 12 kt
Látótávolság 10 km, vagy több
felhőtlen 1500 m magasságban, és nincs gomolyfelhõ
23-én 08 óra UTC és 23-én 10 óra UTC között fokozatosan kialakuló
Nyugat-északnyugati szél 5 kt
23-én 22 óra UTC és 24-én 00 óra UTC között fokozatosan kialakuló
Kelet-északkeleti szél 15 kt

TAF: NZCH 230501Z 2306/2406 07012KT CAVOK BECMG 2308/2310 29005KT BECMG 2322/2400 07015KT

Meteorológiai megfigyelések és előrejelzések több, mint 4000 repülőtéren (METAR és TAF jelentéseket).

A térképen piros és sárga pontok jelzik az elérhető meteorológiai állomásokat.

Mozgassa az egeret a pont fölött, hogy megjelenjen az állomás neve.

Azután kattintson az időjárási megfigyelések és előrejelzések megtekintéséhez.

A térkép megváltoztatása: kattintson a fekete keresztel jelölt zöld gombra ráközelítéshez, a vonallal jelölt zöld gombra távolításhoz, vagy a zöld nyilakra a szomszédos térképek eléréséhez.


METAR-TAF: